createdAt,value
2022-08-31T15:22:02.961Z,22.34
2022-08-31T15:27:07.332Z,22.32
2022-08-31T15:32:10.270Z,22.24
2022-08-31T15:37:11.763Z,22.26
2022-08-31T15:42:13.597Z,22.25
2022-08-31T15:47:33.498Z,22.24
2022-08-31T15:52:36.753Z,22.22
2022-08-31T15:57:39.039Z,22.14
2022-08-31T16:02:40.893Z,22.05
2022-08-31T16:07:43.043Z,21.98
2022-08-31T16:12:45.341Z,21.95
2022-08-31T16:17:46.657Z,22.00
2022-08-31T16:22:48.247Z,21.99
2022-08-31T16:27:49.746Z,22.02
2022-08-31T16:32:52.445Z,22.08
2022-08-31T16:37:54.836Z,22.08
2022-08-31T16:42:56.846Z,22.09
2022-08-31T16:48:16.861Z,22.06
2022-08-31T16:53:18.578Z,22.01
2022-08-31T16:58:40.962Z,21.98
2022-08-31T17:03:47.216Z,21.87
2022-08-31T17:08:52.363Z,21.83
2022-08-31T17:13:58.629Z,21.79
2022-08-31T17:19:01.885Z,21.75
2022-08-31T17:24:05.140Z,21.67
2022-08-31T17:29:06.950Z,21.59
2022-08-31T17:34:14.506Z,21.49
2022-08-31T17:39:16.777Z,21.40
2022-08-31T17:44:19.490Z,21.32
2022-08-31T17:49:22.890Z,21.25
2022-08-31T17:54:30.969Z,21.17
2022-08-31T17:59:35.286Z,21.11
2022-08-31T18:04:37.282Z,21.07
2022-08-31T18:09:40.218Z,21.01
2022-08-31T18:14:41.742Z,20.97
2022-08-31T18:19:44.010Z,20.93
2022-08-31T18:24:45.387Z,20.87
2022-08-31T18:29:46.874Z,20.81
2022-08-31T18:34:52.096Z,20.75
2022-08-31T18:40:14.103Z,20.69
2022-08-31T18:45:15.484Z,20.60
2022-08-31T18:50:16.922Z,20.54
2022-08-31T18:55:19.295Z,20.48
2022-08-31T19:00:20.905Z,20.41
2022-08-31T19:05:22.269Z,20.36
2022-08-31T19:10:23.649Z,20.30
2022-08-31T19:15:36.251Z,20.25
2022-08-31T19:20:37.796Z,20.19
2022-08-31T19:25:43.457Z,20.11
2022-08-31T19:30:47.482Z,20.02
2022-08-31T19:35:56.725Z,19.94
2022-08-31T19:40:59.268Z,19.84
2022-08-31T19:46:16.228Z,19.75
2022-08-31T19:51:19.763Z,19.67
2022-08-31T19:56:24.963Z,19.61
2022-08-31T20:01:32.758Z,19.52
2022-08-31T20:06:34.190Z,19.45
2022-08-31T20:11:35.819Z,19.38
2022-08-31T20:16:41.662Z,19.33
2022-08-31T20:21:44.434Z,19.27
2022-08-31T20:26:51.693Z,19.18
2022-08-31T20:31:55.078Z,19.08
2022-08-31T20:37:00.949Z,19.00
2022-08-31T20:42:03.212Z,18.92
2022-08-31T20:47:25.210Z,18.85
2022-08-31T20:52:28.096Z,18.79
2022-08-31T20:57:33.305Z,18.74
2022-08-31T21:02:35.115Z,18.68
2022-08-31T21:07:36.634Z,18.61
2022-08-31T21:12:37.956Z,18.57
2022-08-31T21:17:40.540Z,18.51
2022-08-31T21:22:41.979Z,18.46
2022-08-31T21:27:43.297Z,18.42
2022-08-31T21:32:46.738Z,18.38
2022-08-31T21:37:48.111Z,18.34
2022-08-31T21:42:49.477Z,18.27
2022-08-31T21:47:51.425Z,18.19
2022-08-31T21:52:55.235Z,18.10
2022-08-31T21:58:01.373Z,18.02
2022-08-31T22:03:02.849Z,17.96
2022-08-31T22:08:04.320Z,17.91
2022-08-31T22:13:06.208Z,17.88
2022-08-31T22:18:35.634Z,17.82
2022-08-31T22:23:29.971Z,17.78
2022-08-31T22:28:31.286Z,17.73
2022-08-31T22:33:32.670Z,17.70
2022-08-31T22:38:34.696Z,17.66
2022-08-31T22:43:40.138Z,17.61
2022-08-31T22:48:41.459Z,17.57
2022-08-31T22:53:44.154Z,17.53
2022-08-31T22:58:46.946Z,17.48
2022-08-31T23:03:51.009Z,17.43
2022-08-31T23:08:53.845Z,17.40
2022-08-31T23:13:56.512Z,17.37
2022-08-31T23:18:59.941Z,17.33
2022-08-31T23:24:02.172Z,17.29
2022-08-31T23:29:05.380Z,17.26
2022-08-31T23:34:13.157Z,17.21
2022-08-31T23:39:15.367Z,17.18
2022-08-31T23:44:18.046Z,17.16
2022-08-31T23:49:20.144Z,17.17
2022-08-31T23:54:23.177Z,17.18
2022-08-31T23:59:25.083Z,17.20
